This is the latest recevied weather packets stored in our database for station/object JF2ZGN-13. If no packets are shown the sender has not sent any weather packets the latest 10 day(s).
| Time | Temp. | Humidity | Pressure | Rain* | Wind** | Luminosity | Snow |
|---|---|---|---|---|---|---|---|
| 1787873368 | 22.22° C | 45% | 906 hPa | 13.97 mm | - | - | - |
| 1787872767 | 21.67° C | 46% | 905.4 hPa | 13.97 mm | - | - | - |
| 1787872168 | 21.11° C | 52% | 905.5 hPa | 13.97 mm | - | - | - |
| 1787871566 | 21.67° C | 47% | 905.2 hPa | 13.97 mm | - | - | - |
| 1787870966 | 21.67° C | 51% | 905.3 hPa | 13.97 mm | - | - | - |
| 1787870365 | 21.67° C | 55% | 905.3 hPa | 13.97 mm | - | - | - |
| 1787869765 | 20.56° C | 69% | 905.1 hPa | 13.97 mm | - | - | - |
| 1787869164 | 20° C | 72% | 905.2 hPa | 13.97 mm | - | - | - |
| 1787868564 | 20° C | 70% | 905.4 hPa | 13.97 mm | - | - | - |
| 1787867964 | 20.56° C | 66% | 905.8 hPa | 13.97 mm | - | - | - |
| 1787867363 | 20° C | 68% | 905.9 hPa | 13.97 mm | - | - | - |
| 1787866763 | 20° C | 69% | 905.7 hPa | 13.97 mm | - | - | - |
| 1787866162 | 20° C | 71% | 905.6 hPa | 13.97 mm | - | - | - |
| 1787865561 | 20° C | 68% | 905.5 hPa | 13.97 mm | - | - | - |
| 1787864961 | 20° C | 64% | 905.6 hPa | 13.97 mm | - | - | - |
| 1787864361 | 20° C | 60% | 905.7 hPa | 13.97 mm | - | - | - |
| 1787863760 | 20° C | 59% | 905.9 hPa | 13.97 mm | - | - | - |
| 1787863160 | 20° C | 59% | 906.2 hPa | 13.97 mm | - | - | - |
| 1787862559 | 20° C | 61% | 906.1 hPa | 13.97 mm | - | - | - |
| 1787861959 | 20° C | 56% | 906 hPa | 13.97 mm | - | - | - |
| 1787861358 | 20° C | 50% | 906 hPa | 13.97 mm | - | - | - |
| 1787860758 | 20° C | 45% | 906.1 hPa | 13.97 mm | - | - | - |
| 1787860157 | 20° C | 60% | 906.5 hPa | 13.97 mm | - | - | - |
| 1787859557 | 20.56° C | 64% | 906.5 hPa | 13.97 mm | - | - | - |
| 1787858956 | 20.56° C | 65% | 906.6 hPa | 13.97 mm | - | - | - |
* Rain since midnight (hover to see other rain measurements)
** Current wind speed in m/s (hover to see current wind gust speed)